Time;durP1;ratioP1;P1;durP2;ratioP2;P2;SDS_P1;SDS_P2;PMS_P1;PMS_P2;Temp;Humidity;BMP_temperature;BMP_pressure;BME280_temperature;BME280_humidity;BME280_pressure;Samples;Min_cycle;Max_cycle;Signal;HPM_P1;HPM_P2
2022/10/17 00:00:21;;;;;;;0.00;0.00;;;;;;;;;;5096653;28;20434;-72
2022/10/17 00:02:48;;;;;;;0.00;0.00;;;;;;;;;;5106705;28;20378;-71
2022/10/17 00:05:14;;;;;;;0.35;0.35;;;;;;;;;;5112282;28;20028;-72
2022/10/17 00:07:40;;;;;;;0.20;0.20;;;;;;;;;;5097018;28;20073;-72
2022/10/17 00:10:07;;;;;;;0.00;0.00;;;;;;;;;;5115265;28;20095;-72
2022/10/17 00:12:34;;;;;;;0.00;0.00;;;;;;;;;;5096851;28;20076;-72
2022/10/17 00:15:02;;;;;;;0.00;0.00;;;;;;;;;;5114658;28;20023;-71
2022/10/17 00:17:28;;;;;;;0.00;0.00;;;;;;;;;;5097473;28;20024;-72
2022/10/17 00:19:54;;;;;;;0.00;0.00;;;;;;;;;;5113533;28;20028;-72
2022/10/17 00:22:21;;;;;;;0.77;0.77;;;;;;;;;;5094380;28;20017;-71
2022/10/17 00:24:47;;;;;;;0.00;0.00;;;;;;;;;;5097640;28;20028;-72
2022/10/17 00:27:13;;;;;;;0.00;0.00;;;;;;;;;;5099742;28;20458;-71
2022/10/17 00:29:40;;;;;;;0.73;0.73;;;;;;;;;;5107254;28;20020;-72
2022/10/17 00:32:06;;;;;;;0.00;0.00;;;;;;;;;;5115978;28;20024;-71
2022/10/17 00:34:32;;;;;;;0.15;0.15;;;;;;;;;;5114872;28;20024;-71
2022/10/17 00:36:58;;;;;;;0.00;0.00;;;;;;;;;;5114321;28;20072;-71
2022/10/17 00:39:25;;;;;;;0.00;0.00;;;;;;;;;;5095918;28;20047;-71
2022/10/17 00:41:51;;;;;;;0.00;0.00;;;;;;;;;;5107461;28;20031;-73
2022/10/17 00:44:29;;;;;;;0.00;0.00;;;;;;;;;;5091030;28;20027;-73
2022/10/17 00:47:01;;;;;;;0.00;0.00;;;;;;;;;;5113107;28;20538;-73
2022/10/17 00:49:30;;;;;;;0.65;0.65;;;;;;;;;;5092439;28;20075;-73
2022/10/17 00:52:01;;;;;;;0.00;0.00;;;;;;;;;;5095032;28;20047;-73
2022/10/17 00:54:33;;;;;;;0.00;0.00;;;;;;;;;;5093276;28;20023;-71
2022/10/17 00:57:00;;;;;;;0.05;0.05;;;;;;;;;;5095637;28;20106;-71
2022/10/17 00:59:26;;;;;;;0.00;0.00;;;;;;;;;;5111109;28;20458;-71
2022/10/17 01:02:13;;;;;;;0.00;0.00;;;;;;;;;;5113885;28;20069;-71
2022/10/17 01:04:40;;;;;;;0.00;0.00;;;;;;;;;;5092465;28;20114;-70
2022/10/17 01:07:07;;;;;;;0.00;0.00;;;;;;;;;;5109001;28;20073;-71
2022/10/17 01:09:34;;;;;;;0.00;0.00;;;;;;;;;;5093896;28;20028;-72
2022/10/17 01:12:18;;;;;;;0.00;0.00;;;;;;;;;;5107194;28;20036;-71
2022/10/17 01:14:47;;;;;;;0.00;0.00;;;;;;;;;;5094017;28;20036;-71
2022/10/17 01:17:31;;;;;;;0.40;0.40;;;;;;;;;;5093639;28;20019;-71
2022/10/17 01:20:04;;;;;;;0.00;0.00;;;;;;;;;;5093952;28;20019;-71
2022/10/17 01:22:40;;;;;;;0.00;0.00;;;;;;;;;;5107179;28;20019;-71
2022/10/17 01:25:25;;;;;;;0.20;0.20;;;;;;;;;;5087914;28;20032;-72
2022/10/17 01:28:00;;;;;;;0.00;0.00;;;;;;;;;;5099684;28;20611;-71
2022/10/17 01:30:42;;;;;;;4.28;2.50;;;;;;;;;;5107214;28;20063;-73
2022/10/17 01:33:08;;;;;;;0.47;0.47;;;;;;;;;;5093711;28;20049;-73
2022/10/17 01:35:41;;;;;;;0.00;0.00;;;;;;;;;;5087786;28;20398;-73
2022/10/17 01:38:13;;;;;;;0.22;0.22;;;;;;;;;;5089876;28;20158;-72
2022/10/17 01:40:40;;;;;;;0.00;0.00;;;;;;;;;;5099602;28;20414;-72
2022/10/17 01:43:16;;;;;;;0.00;0.00;;;;;;;;;;5081007;28;20036;-72
2022/10/17 01:45:47;;;;;;;0.00;0.00;;;;;;;;;;5103879;28;20020;-72
2022/10/17 01:48:17;;;;;;;0.00;0.00;;;;;;;;;;5096789;28;20024;-72
2022/10/17 01:50:46;;;;;;;0.00;0.00;;;;;;;;;;5094249;28;20058;-71
2022/10/17 01:53:16;;;;;;;0.00;0.00;;;;;;;;;;5106536;28;20157;-71
2022/10/17 01:55:43;;;;;;;0.00;0.00;;;;;;;;;;5095187;28;20088;-73
2022/10/17 01:58:13;;;;;;;0.10;0.10;;;;;;;;;;5093865;28;20050;-73
2022/10/17 02:00:41;;;;;;;0.45;0.45;;;;;;;;;;5102918;28;20035;-73
2022/10/17 02:03:09;;;;;;;0.38;0.38;;;;;;;;;;5087611;28;20482;-73
2022/10/17 02:05:37;;;;;;;0.00;0.00;;;;;;;;;;5104700;28;20394;-73
2022/10/17 02:08:04;;;;;;;0.00;0.00;;;;;;;;;;5090039;28;20027;-73
2022/10/17 02:10:44;;;;;;;0.10;0.08;;;;;;;;;;5103219;28;20031;-73
2022/10/17 02:13:34;;;;;;;0.20;0.20;;;;;;;;;;5087207;28;20623;-73
2022/10/17 02:16:12;;;;;;;0.00;0.00;;;;;;;;;;5077850;28;20036;-74
2022/10/17 02:18:39;;;;;;;2.00;1.98;;;;;;;;;;5110223;28;20534;-73
2022/10/17 02:21:08;;;;;;;0.00;0.00;;;;;;;;;;5090414;28;20386;-74
2022/10/17 02:23:34;;;;;;;0.00;0.00;;;;;;;;;;5092280;28;20020;-73
2022/10/17 02:26:00;;;;;;;0.00;0.00;;;;;;;;;;5088402;28;20020;-75
2022/10/17 02:28:32;;;;;;;0.10;0.10;;;;;;;;;;5093184;28;20016;-73
2022/10/17 02:31:17;;;;;;;0.00;0.00;;;;;;;;;;5097217;28;20158;-75
2022/10/17 02:33:45;;;;;;;3.03;2.92;;;;;;;;;;5108475;28;20030;-73
2022/10/17 02:36:14;;;;;;;0.65;0.65;;;;;;;;;;5089189;28;20024;-73
2022/10/17 02:38:43;;;;;;;0.00;0.00;;;;;;;;;;5096978;28;20089;-73
2022/10/17 02:41:11;;;;;;;0.17;0.17;;;;;;;;;;5083982;28;20027;-73
2022/10/17 02:43:37;;;;;;;0.00;0.00;;;;;;;;;;5105671;28;20154;-72
2022/10/17 02:46:05;;;;;;;0.00;0.00;;;;;;;;;;5108928;27;20026;-71
2022/10/17 02:48:38;;;;;;;1.55;1.48;;;;;;;;;;5082308;28;20028;-71
2022/10/17 02:51:11;;;;;;;0.20;0.20;;;;;;;;;;5107099;27;20039;-72
2022/10/17 02:53:53;;;;;;;0.47;0.47;;;;;;;;;;5083785;28;20046;-71
2022/10/17 02:56:20;;;;;;;0.40;0.35;;;;;;;;;;5086108;28;20024;-71
2022/10/17 02:58:48;;;;;;;0.73;0.28;;;;;;;;;;5088121;28;20034;-72
2022/10/17 03:01:15;;;;;;;0.10;0.10;;;;;;;;;;5099144;28;20027;-72
2022/10/17 03:03:41;;;;;;;0.00;0.00;;;;;;;;;;5084992;28;20493;-71
2022/10/17 03:06:08;;;;;;;0.00;0.00;;;;;;;;;;5104356;28;20024;-73
2022/10/17 03:08:34;;;;;;;0.22;0.22;;;;;;;;;;5091870;27;20019;-72
2022/10/17 03:11:01;;;;;;;0.25;0.25;;;;;;;;;;5104694;28;20085;-72
2022/10/17 03:13:28;;;;;;;0.10;0.10;;;;;;;;;;5088754;28;20107;-71
2022/10/17 03:15:56;;;;;;;0.00;0.00;;;;;;;;;;5102865;28;20059;-73
2022/10/17 03:18:23;;;;;;;1.20;1.20;;;;;;;;;;5103055;27;20024;-72
2022/10/17 03:20:49;;;;;;;1.05;1.00;;;;;;;;;;5100031;28;20027;-71
2022/10/17 03:23:15;;;;;;;0.25;0.25;;;;;;;;;;5091037;28;20024;-72
2022/10/17 03:25:42;;;;;;;0.65;0.65;;;;;;;;;;5105822;27;20020;-72
2022/10/17 03:28:09;;;;;;;0.10;0.10;;;;;;;;;;5085644;27;20034;-72
2022/10/17 03:30:38;;;;;;;0.22;0.20;;;;;;;;;;5098158;27;20611;-73
2022/10/17 03:33:04;;;;;;;0.15;0.15;;;;;;;;;;5101914;27;20073;-74
2022/10/17 03:35:30;;;;;;;0.00;0.00;;;;;;;;;;5086521;28;20051;-75
2022/10/17 03:37:57;;;;;;;0.00;0.00;;;;;;;;;;5103993;27;20031;-75
2022/10/17 03:40:23;;;;;;;0.50;0.50;;;;;;;;;;5085003;28;20543;-74
2022/10/17 03:42:50;;;;;;;0.00;0.00;;;;;;;;;;5087461;27;20497;-75
2022/10/17 03:45:16;;;;;;;0.32;0.32;;;;;;;;;;5100885;28;20562;-75
2022/10/17 03:47:42;;;;;;;0.00;0.00;;;;;;;;;;5107986;28;20058;-75
2022/10/17 03:50:09;;;;;;;0.88;0.60;;;;;;;;;;5102630;28;20016;-77
2022/10/17 03:52:35;;;;;;;2.30;1.70;;;;;;;;;;5099776;28;20066;-76
2022/10/17 03:55:01;;;;;;;0.00;0.00;;;;;;;;;;5101262;28;20042;-78
2022/10/17 03:57:28;;;;;;;0.10;0.10;;;;;;;;;;5111363;28;20057;-75
2022/10/17 03:59:56;;;;;;;0.00;0.00;;;;;;;;;;5088655;28;20032;-75
2022/10/17 04:02:22;;;;;;;0.00;0.00;;;;;;;;;;5111577;28;20066;-75
2022/10/17 04:04:48;;;;;;;0.05;0.05;;;;;;;;;;5108115;27;20016;-76
2022/10/17 04:07:15;;;;;;;0.13;0.13;;;;;;;;;;5106224;27;20093;-77
2022/10/17 04:09:41;;;;;;;0.90;0.63;;;;;;;;;;5101961;27;20034;-76
2022/10/17 04:12:07;;;;;;;0.15;0.15;;;;;;;;;;5106007;27;20060;-73
2022/10/17 04:14:34;;;;;;;0.00;0.00;;;;;;;;;;5087097;28;20445;-77
2022/10/17 04:17:00;;;;;;;0.10;0.10;;;;;;;;;;5086397;27;20024;-74
2022/10/17 04:22:30;;;;;;;0.30;0.20;;;;;;;;;;5101951;28;20080;-73
2022/10/17 04:24:56;;;;;;;0.00;0.00;;;;;;;;;;5102569;27;20037;-74
2022/10/17 04:27:23;;;;;;;1.75;0.80;;;;;;;;;;5086753;28;20103;-72
2022/10/17 04:29:49;;;;;;;0.00;0.00;;;;;;;;;;5081231;28;20024;-75
2022/10/17 04:32:16;;;;;;;0.10;0.10;;;;;;;;;;5103123;27;20478;-72
2022/10/17 04:34:42;;;;;;;0.20;0.20;;;;;;;;;;5096693;27;20036;-74
2022/10/17 04:37:08;;;;;;;0.20;0.20;;;;;;;;;;5105704;27;20027;-74
2022/10/17 04:39:35;;;;;;;0.00;0.00;;;;;;;;;;5087175;28;20452;-74
2022/10/17 04:42:04;;;;;;;3.25;1.75;;;;;;;;;;5081874;28;20032;-73
2022/10/17 04:44:32;;;;;;;0.10;0.10;;;;;;;;;;5099355;27;20020;-72
2022/10/17 04:46:58;;;;;;;0.38;0.38;;;;;;;;;;5098462;28;20481;-73
2022/10/17 04:49:25;;;;;;;1.40;1.30;;;;;;;;;;5103195;27;20094;-75
2022/10/17 04:51:51;;;;;;;1.88;1.77;;;;;;;;;;5104470;28;20028;-74
2022/10/17 04:54:17;;;;;;;3.30;3.10;;;;;;;;;;5084788;27;20033;-74
2022/10/17 04:56:45;;;;;;;20.98;16.42;;;;;;;;;;5103011;27;20035;-74
2022/10/17 04:59:12;;;;;;;0.00;0.00;;;;;;;;;;5094281;27;20120;-74
2022/10/17 05:01:38;;;;;;;0.00;0.00;;;;;;;;;;5099141;27;20055;-72
2022/10/17 05:04:05;;;;;;;5.63;5.10;;;;;;;;;;5110183;27;20016;-71
2022/10/17 05:06:32;;;;;;;0.00;0.00;;;;;;;;;;5080854;28;20023;-73
2022/10/17 05:08:58;;;;;;;0.00;0.00;;;;;;;;;;5085128;28;20026;-72
2022/10/17 05:11:25;;;;;;;1.35;1.35;;;;;;;;;;5102298;28;20020;-74
2022/10/17 05:13:53;;;;;;;13.15;3.10;;;;;;;;;;5080091;28;20027;-75
2022/10/17 05:16:20;;;;;;;0.25;0.25;;;;;;;;;;5083954;28;20100;-75
2022/10/17 05:18:50;;;;;;;0.10;0.10;;;;;;;;;;5105863;28;20104;-76
2022/10/17 05:21:17;;;;;;;0.20;0.20;;;;;;;;;;5081710;28;20092;-75
2022/10/17 05:23:43;;;;;;;0.70;0.70;;;;;;;;;;5080742;27;20032;-73
2022/10/17 05:26:10;;;;;;;0.08;0.08;;;;;;;;;;5100865;28;20028;-75
2022/10/17 05:28:36;;;;;;;0.00;0.00;;;;;;;;;;5103616;27;20039;-74
2022/10/17 05:31:06;;;;;;;0.80;0.25;;;;;;;;;;5095789;27;20017;-74
2022/10/17 05:33:33;;;;;;;0.85;0.75;;;;;;;;;;5095336;27;20387;-74
2022/10/17 05:35:59;;;;;;;0.25;0.25;;;;;;;;;;5090608;27;20103;-74
2022/10/17 05:38:26;;;;;;;1.10;1.00;;;;;;;;;;5090954;28;20031;-73
2022/10/17 05:40:57;;;;;;;0.00;0.00;;;;;;;;;;5099736;27;20021;-74
2022/10/17 05:43:23;;;;;;;0.00;0.00;;;;;;;;;;5100347;27;20028;-71
2022/10/17 05:45:50;;;;;;;0.30;0.30;;;;;;;;;;5101206;28;20490;-73
2022/10/17 05:48:16;;;;;;;0.38;0.38;;;;;;;;;;5102781;27;20035;-74
2022/10/17 05:50:43;;;;;;;0.38;0.20;;;;;;;;;;5080217;28;20383;-72
2022/10/17 05:53:09;;;;;;;0.00;0.00;;;;;;;;;;5080485;28;20024;-76
2022/10/17 05:55:35;;;;;;;0.45;0.45;;;;;;;;;;5098843;27;20178;-73
2022/10/17 05:58:02;;;;;;;0.45;0.45;;;;;;;;;;5101948;27;20394;-73
2022/10/17 06:00:28;;;;;;;0.98;0.98;;;;;;;;;;5082663;27;20125;-72
2022/10/17 06:02:56;;;;;;;5.22;2.10;;;;;;;;;;5106388;28;20019;-73
2022/10/17 06:05:23;;;;;;;0.30;0.13;;;;;;;;;;5103090;28;20430;-74
2022/10/17 06:07:51;;;;;;;0.00;0.00;;;;;;;;;;5076298;28;20034;-75
2022/10/17 06:10:18;;;;;;;0.30;0.30;;;;;;;;;;5077961;28;20023;-74
2022/10/17 06:12:44;;;;;;;0.00;0.00;;;;;;;;;;5095496;28;20431;-73
2022/10/17 06:15:11;;;;;;;0.90;0.90;;;;;;;;;;5076144;28;20038;-75
2022/10/17 06:17:37;;;;;;;1.27;0.63;;;;;;;;;;5097046;28;20023;-73
2022/10/17 06:20:04;;;;;;;0.15;0.15;;;;;;;;;;5097029;28;20035;-75
2022/10/17 06:22:30;;;;;;;0.45;0.45;;;;;;;;;;5078082;28;20047;-71
2022/10/17 06:24:57;;;;;;;0.70;0.70;;;;;;;;;;5103801;28;20046;-72
2022/10/17 06:27:23;;;;;;;2.63;0.20;;;;;;;;;;5098874;28;20024;-73
2022/10/17 06:29:52;;;;;;;3.53;0.65;;;;;;;;;;5080435;28;20385;-74
2022/10/17 06:32:19;;;;;;;0.00;0.00;;;;;;;;;;5095298;28;20058;-73
2022/10/17 06:34:45;;;;;;;0.00;0.00;;;;;;;;;;5096740;28;20039;-74
2022/10/17 06:37:11;;;;;;;0.13;0.10;;;;;;;;;;5095844;28;20035;-72
2022/10/17 06:39:38;;;;;;;0.10;0.10;;;;;;;;;;5099603;28;20035;-70
2022/10/17 06:42:04;;;;;;;0.05;0.05;;;;;;;;;;5099966;28;20113;-73
2022/10/17 06:44:31;;;;;;;0.10;0.10;;;;;;;;;;5076409;28;20060;-71
2022/10/17 06:46:58;;;;;;;1.30;0.70;;;;;;;;;;5098946;28;20051;-72
2022/10/17 06:49:24;;;;;;;1.80;1.73;;;;;;;;;;5093588;28;20175;-72
2022/10/17 06:51:51;;;;;;;1.08;0.75;;;;;;;;;;5098428;28;20047;-70
2022/10/17 06:54:17;;;;;;;0.00;0.00;;;;;;;;;;5098672;28;20032;-72
2022/10/17 06:56:43;;;;;;;0.00;0.00;;;;;;;;;;5103153;28;20032;-71
2022/10/17 06:59:10;;;;;;;0.63;0.45;;;;;;;;;;5103313;28;20393;-71
2022/10/17 07:01:36;;;;;;;24.20;1.75;;;;;;;;;;5094925;28;20027;-70
2022/10/17 07:04:03;;;;;;;1.27;1.20;;;;;;;;;;5077970;28;20023;-71
2022/10/17 07:06:29;;;;;;;0.00;0.00;;;;;;;;;;5099050;28;20106;-71
2022/10/17 07:08:55;;;;;;;0.00;0.00;;;;;;;;;;5100520;28;20052;-70
2022/10/17 07:11:24;;;;;;;0.00;0.00;;;;;;;;;;5089083;28;20024;-72
2022/10/17 07:13:51;;;;;;;0.00;0.00;;;;;;;;;;5099139;28;20031;-72
2022/10/17 07:16:17;;;;;;;0.00;0.00;;;;;;;;;;5098810;28;20028;-72
2022/10/17 07:18:45;;;;;;;0.10;0.10;;;;;;;;;;5111090;28;20095;-73
2022/10/17 07:21:12;;;;;;;0.00;0.00;;;;;;;;;;5120346;28;20054;-72
2022/10/17 07:23:39;;;;;;;0.00;0.00;;;;;;;;;;5102671;28;20031;-72
2022/10/17 07:26:08;;;;;;;1.33;0.75;;;;;;;;;;5087653;28;20019;-72
2022/10/17 07:28:35;;;;;;;0.00;0.00;;;;;;;;;;5081748;27;22446;-72
2022/10/17 07:31:05;;;;;;;0.52;0.43;;;;;;;;;;5088746;27;20038;-73
2022/10/17 07:33:32;;;;;;;0.00;0.00;;;;;;;;;;5103279;28;20030;-77
2022/10/17 07:35:59;;;;;;;0.00;0.00;;;;;;;;;;5082970;28;20043;-79
2022/10/17 07:38:26;;;;;;;0.00;0.00;;;;;;;;;;5079453;27;20072;-80
2022/10/17 07:40:56;;;;;;;0.03;0.00;;;;;;;;;;5106670;27;20032;-79
2022/10/17 07:43:23;;;;;;;0.35;0.30;;;;;;;;;;5105938;27;20043;-76
2022/10/17 07:45:49;;;;;;;0.00;0.00;;;;;;;;;;5105694;27;20078;-78
2022/10/17 07:48:16;;;;;;;0.00;0.00;;;;;;;;;;5106548;27;20020;-78
2022/10/17 07:50:42;;;;;;;0.10;0.08;;;;;;;;;;5106293;27;20059;-75
2022/10/17 07:53:08;;;;;;;0.00;0.00;;;;;;;;;;5107916;27;20038;-80
2022/10/17 07:55:36;;;;;;;5.95;5.50;;;;;;;;;;5104878;27;20032;-76
2022/10/17 07:58:03;;;;;;;0.00;0.00;;;;;;;;;;5114312;28;20032;-77
2022/10/17 08:00:29;;;;;;;0.00;0.00;;;;;;;;;;5101399;27;20032;-78
2022/10/17 08:02:55;;;;;;;0.00;0.00;;;;;;;;;;5096362;28;20024;-80
2022/10/17 08:05:22;;;;;;;0.00;0.00;;;;;;;;;;5101305;27;20070;-79
2022/10/17 08:07:48;;;;;;;0.00;0.00;;;;;;;;;;5108371;27;20106;-80
2022/10/17 08:10:15;;;;;;;0.00;0.00;;;;;;;;;;5113031;27;20066;-80
2022/10/17 08:12:42;;;;;;;0.00;0.00;;;;;;;;;;5099802;27;20032;-74
2022/10/17 08:15:09;;;;;;;0.10;0.10;;;;;;;;;;5099590;27;20454;-73
2022/10/17 08:17:36;;;;;;;0.00;0.00;;;;;;;;;;5102527;27;20108;-73
2022/10/17 08:20:02;;;;;;;0.00;0.00;;;;;;;;;;5100838;27;20023;-76
2022/10/17 08:22:29;;;;;;;0.13;0.10;;;;;;;;;;5084275;27;20081;-74
2022/10/17 08:24:55;;;;;;;0.00;0.00;;;;;;;;;;5105732;27;20034;-76
2022/10/17 08:27:23;;;;;;;0.00;0.00;;;;;;;;;;5105519;27;20034;-76
2022/10/17 08:29:53;;;;;;;0.15;0.10;;;;;;;;;;5086656;28;20397;-72
2022/10/17 08:32:20;;;;;;;0.70;0.63;;;;;;;;;;5102880;27;20039;-74
2022/10/17 08:34:46;;;;;;;0.55;0.55;;;;;;;;;;5086449;28;20478;-72
2022/10/17 08:37:13;;;;;;;0.43;0.25;;;;;;;;;;5086506;28;20028;-72
2022/10/17 08:39:40;;;;;;;0.00;0.00;;;;;;;;;;5082493;27;20446;-75
2022/10/17 08:42:10;;;;;;;0.55;0.38;;;;;;;;;;5094401;27;20086;-74
2022/10/17 08:44:36;;;;;;;0.00;0.00;;;;;;;;;;5088076;28;20077;-76
2022/10/17 08:47:05;;;;;;;0.00;0.00;;;;;;;;;;5063833;28;20417;-76
2022/10/17 08:49:39;;;;;;;0.00;0.00;;;;;;;;;;5083162;28;20424;-70
2022/10/17 08:52:10;;;;;;;0.00;0.00;;;;;;;;;;5065601;28;20035;-70
2022/10/17 08:54:45;;;;;;;0.10;0.00;;;;;;;;;;5081188;28;20039;-70
2022/10/17 08:57:15;;;;;;;0.43;0.43;;;;;;;;;;5077871;28;21850;-70
2022/10/17 08:59:42;;;;;;;0.00;0.00;;;;;;;;;;5076998;28;20586;-69
2022/10/17 09:02:37;;;;;;;0.90;0.75;;;;;;;;;;5080776;28;20078;-69
2022/10/17 09:05:06;;;;;;;0.00;0.00;;;;;;;;;;5061059;28;20055;-70
2022/10/17 09:07:43;;;;;;;0.00;0.00;;;;;;;;;;5073091;28;20023;-71
2022/10/17 09:10:27;;;;;;;0.00;0.00;;;;;;;;;;5072998;28;20039;-73
2022/10/17 09:13:04;;;;;;;0.68;0.68;;;;;;;;;;5067950;28;20537;-72
2022/10/17 09:15:34;;;;;;;0.00;0.00;;;;;;;;;;5057325;28;20109;-72
2022/10/17 09:18:26;;;;;;;0.00;0.00;;;;;;;;;;5072871;28;20036;-72
2022/10/17 09:21:01;;;;;;;0.00;0.00;;;;;;;;;;5083716;28;20024;-74
2022/10/17 09:23:31;;;;;;;0.00;0.00;;;;;;;;;;5079330;28;20558;-75
2022/10/17 09:25:58;;;;;;;0.00;0.00;;;;;;;;;;5073554;28;20348;-74
2022/10/17 09:28:27;;;;;;;0.15;0.15;;;;;;;;;;5063633;28;20020;-74
2022/10/17 09:31:00;;;;;;;0.00;0.00;;;;;;;;;;5063621;28;20031;-73
2022/10/17 09:33:29;;;;;;;0.00;0.00;;;;;;;;;;5078025;28;20675;-73
2022/10/17 09:35:56;;;;;;;0.00;0.00;;;;;;;;;;5080086;28;20041;-74
2022/10/17 09:38:25;;;;;;;0.30;0.30;;;;;;;;;;5060429;28;20490;-74
2022/10/17 09:40:55;;;;;;;0.00;0.00;;;;;;;;;;5061125;28;20028;-73
2022/10/17 09:43:23;;;;;;;0.00;0.00;;;;;;;;;;5085441;28;20036;-74
2022/10/17 09:46:04;;;;;;;0.00;0.00;;;;;;;;;;5097475;27;20489;-73
2022/10/17 09:48:42;;;;;;;0.77;0.52;;;;;;;;;;5077590;28;20076;-74
2022/10/17 09:51:09;;;;;;;0.00;0.00;;;;;;;;;;5102628;27;20024;-73
2022/10/17 09:53:44;;;;;;;0.05;0.05;;;;;;;;;;5098275;27;20055;-73
2022/10/17 09:56:17;;;;;;;0.00;0.00;;;;;;;;;;5075411;28;20057;-72
2022/10/17 09:58:45;;;;;;;0.43;0.43;;;;;;;;;;5072874;28;20027;-73
2022/10/17 10:01:16;;;;;;;0.00;0.00;;;;;;;;;;5075547;27;20126;-72
2022/10/17 10:03:43;;;;;;;0.93;0.93;;;;;;;;;;5098360;28;20028;-73
2022/10/17 10:06:12;;;;;;;0.00;0.00;;;;;;;;;;5098078;28;20325;-73
2022/10/17 10:09:05;;;;;;;0.00;0.00;;;;;;;;;;5099534;27;20028;-73
2022/10/17 10:11:44;;;;;;;2.30;0.68;;;;;;;;;;5078741;28;20118;-75
2022/10/17 10:14:12;;;;;;;0.20;0.20;;;;;;;;;;5099719;28;20028;-74
2022/10/17 10:16:42;;;;;;;0.00;0.00;;;;;;;;;;5100107;28;20478;-76
2022/10/17 10:19:41;;;;;;;1.35;0.45;;;;;;;;;;5092061;28;20620;-75
2022/10/17 10:22:22;;;;;;;0.00;0.00;;;;;;;;;;5029337;28;20104;-75
2022/10/17 10:25:07;;;;;;;0.00;0.00;;;;;;;;;;5095257;28;20020;-75
2022/10/17 10:27:34;;;;;;;0.00;0.00;;;;;;;;;;5099442;28;20099;-76
2022/10/17 10:30:01;;;;;;;4.18;4.00;;;;;;;;;;5094596;28;20035;-76
2022/10/17 10:32:34;;;;;;;0.00;0.00;;;;;;;;;;5100603;28;20118;-76
2022/10/17 10:35:06;;;;;;;0.00;0.00;;;;;;;;;;5098276;28;20039;-75
2022/10/17 10:37:35;;;;;;;0.32;0.32;;;;;;;;;;5108239;28;20603;-77
2022/10/17 10:40:04;;;;;;;0.00;0.00;;;;;;;;;;5097364;28;20039;-75
2022/10/17 10:42:40;;;;;;;0.00;0.00;;;;;;;;;;5102000;28;20044;-75
2022/10/17 10:45:15;;;;;;;0.00;0.00;;;;;;;;;;5096076;28;20020;-77
2022/10/17 10:47:50;;;;;;;0.00;0.00;;;;;;;;;;5089763;28;20047;-75
2022/10/17 10:50:21;;;;;;;0.00;0.00;;;;;;;;;;5081136;28;20028;-73
2022/10/17 10:52:54;;;;;;;0.00;0.00;;;;;;;;;;5061320;28;20048;-75
2022/10/17 10:55:29;;;;;;;0.00;0.00;;;;;;;;;;5115086;28;20027;-75
2022/10/17 10:58:03;;;;;;;0.00;0.00;;;;;;;;;;5092476;28;20027;-75
2022/10/17 11:00:31;;;;;;;0.63;0.30;;;;;;;;;;5100593;28;20031;-75
2022/10/17 11:03:10;;;;;;;0.20;0.20;;;;;;;;;;5097722;28;20070;-73
2022/10/17 11:05:42;;;;;;;0.00;0.00;;;;;;;;;;5107624;27;20032;-77
2022/10/17 11:08:29;;;;;;;0.00;0.00;;;;;;;;;;5101897;28;20023;-77
2022/10/17 11:11:03;;;;;;;0.28;0.28;;;;;;;;;;5085169;28;20024;-76
2022/10/17 11:13:33;;;;;;;0.00;0.00;;;;;;;;;;5103420;27;20124;-81
2022/10/17 11:16:12;;;;;;;0.00;0.00;;;;;;;;;;5101851;27;20028;-78
2022/10/17 11:18:42;;;;;;;0.00;0.00;;;;;;;;;;5079898;28;20043;-74
2022/10/17 11:21:16;;;;;;;1.30;1.25;;;;;;;;;;5093527;28;20028;-74
2022/10/17 11:23:57;;;;;;;0.03;0.03;;;;;;;;;;5100603;27;20550;-73
2022/10/17 11:26:28;;;;;;;0.00;0.00;;;;;;;;;;5095697;28;20148;-75
2022/10/17 11:29:00;;;;;;;0.22;0.22;;;;;;;;;;5099115;27;20031;-74
2022/10/17 11:31:30;;;;;;;0.00;0.00;;;;;;;;;;5097141;27;20527;-73
2022/10/17 11:34:01;;;;;;;0.00;0.00;;;;;;;;;;5105034;27;20043;-74
2022/10/17 11:36:32;;;;;;;0.00;0.00;;;;;;;;;;5086577;28;20028;-74
2022/10/17 11:39:01;;;;;;;0.00;0.00;;;;;;;;;;5097503;27;20566;-73
2022/10/17 11:41:43;;;;;;;0.00;0.00;;;;;;;;;;5101776;27;20034;-72
2022/10/17 11:44:22;;;;;;;0.00;0.00;;;;;;;;;;5097071;27;20016;-73
2022/10/17 11:46:51;;;;;;;0.00;0.00;;;;;;;;;;5101471;28;20032;-71
2022/10/17 11:49:22;;;;;;;0.00;0.00;;;;;;;;;;5085824;28;20028;-72
2022/10/17 11:51:56;;;;;;;0.00;0.00;;;;;;;;;;5105844;27;20077;-72
2022/10/17 11:54:26;;;;;;;0.00;0.00;;;;;;;;;;5097993;27;20055;-73
2022/10/17 11:56:58;;;;;;;0.00;0.00;;;;;;;;;;5092857;28;20095;-76
2022/10/17 11:59:40;;;;;;;0.70;0.47;;;;;;;;;;5073929;28;20036;-73
2022/10/17 12:02:14;;;;;;;3.20;1.40;;;;;;;;;;5082971;28;20964;-71
2022/10/17 12:05:07;;;;;;;0.00;0.00;;;;;;;;;;5097440;28;20036;-70
2022/10/17 12:07:53;;;;;;;0.00;0.00;;;;;;;;;;5067542;28;20043;-73
2022/10/17 12:10:20;;;;;;;0.00;0.00;;;;;;;;;;5102105;27;20035;-72
2022/10/17 12:12:48;;;;;;;0.00;0.00;;;;;;;;;;5080311;28;20032;-71
2022/10/17 12:15:23;;;;;;;0.00;0.00;;;;;;;;;;5101808;27;20115;-73
2022/10/17 12:18:03;;;;;;;0.00;0.00;;;;;;;;;;5099605;27;20035;-72
2022/10/17 12:20:34;;;;;;;0.08;0.08;;;;;;;;;;5097812;28;20589;-71
2022/10/17 12:23:12;;;;;;;0.00;0.00;;;;;;;;;;5103505;27;20477;-71
2022/10/17 12:25:49;;;;;;;0.00;0.00;;;;;;;;;;5100310;27;20023;-72
2022/10/17 12:28:18;;;;;;;0.00;0.00;;;;;;;;;;5085519;28;20023;-73
2022/10/17 12:30:49;;;;;;;5.03;4.72;;;;;;;;;;5103619;27;20028;-73
2022/10/17 12:33:25;;;;;;;0.00;0.00;;;;;;;;;;5104928;27;20022;-74
2022/10/17 12:36:12;;;;;;;0.00;0.00;;;;;;;;;;5078839;28;20028;-73
2022/10/17 12:38:38;;;;;;;1.88;1.17;;;;;;;;;;5079346;27;20111;-74
2022/10/17 12:41:05;;;;;;;0.00;0.00;;;;;;;;;;5105768;27;20665;-73
2022/10/17 12:43:31;;;;;;;0.00;0.00;;;;;;;;;;5104424;27;20043;-73
2022/10/17 12:45:58;;;;;;;0.00;0.00;;;;;;;;;;5101418;28;20023;-73
2022/10/17 12:48:34;;;;;;;0.05;0.05;;;;;;;;;;5098945;28;20020;-73
2022/10/17 12:51:12;;;;;;;0.00;0.00;;;;;;;;;;5083489;28;20355;-73
2022/10/17 12:53:45;;;;;;;21.75;4.25;;;;;;;;;;5101501;28;20036;-73
2022/10/17 12:56:12;;;;;;;1.77;1.67;;;;;;;;;;5096229;28;20622;-73
2022/10/17 12:58:42;;;;;;;3.90;2.33;;;;;;;;;;5087006;28;20498;-73
2022/10/17 13:01:14;;;;;;;4.22;3.20;;;;;;;;;;5078487;28;20191;-73
2022/10/17 13:03:45;;;;;;;4.50;3.10;;;;;;;;;;5098508;28;20808;-73
2022/10/17 13:06:19;;;;;;;0.15;0.10;;;;;;;;;;5090472;28;20016;-74
2022/10/17 13:08:48;;;;;;;0.85;0.85;;;;;;;;;;5094525;28;20020;-73
2022/10/17 13:11:15;;;;;;;0.00;0.00;;;;;;;;;;5089716;28;20092;-73
2022/10/17 13:13:49;;;;;;;5.88;4.35;;;;;;;;;;5073177;28;20032;-73
2022/10/17 13:16:32;;;;;;;0.10;0.10;;;;;;;;;;5094967;28;20051;-74
2022/10/17 13:18:59;;;;;;;3.47;3.00;;;;;;;;;;5104604;27;20027;-73
2022/10/17 13:21:26;;;;;;;2.78;2.58;;;;;;;;;;5104116;27;20028;-73
2022/10/17 13:23:53;;;;;;;0.70;0.70;;;;;;;;;;5086774;28;20024;-73
2022/10/17 13:26:19;;;;;;;0.70;0.70;;;;;;;;;;5075422;28;20433;-73
2022/10/17 13:29:04;;;;;;;0.00;0.00;;;;;;;;;;5075769;28;20103;-73
2022/10/17 13:31:32;;;;;;;0.13;0.13;;;;;;;;;;5106887;27;20445;-73
2022/10/17 13:34:00;;;;;;;0.10;0.10;;;;;;;;;;5103893;27;20381;-73
2022/10/17 13:36:27;;;;;;;2.38;2.28;;;;;;;;;;5103549;28;20024;-73
2022/10/17 13:38:53;;;;;;;0.38;0.38;;;;;;;;;;5079403;28;20103;-74
2022/10/17 13:41:27;;;;;;;0.00;0.00;;;;;;;;;;5097400;27;20221;-75
2022/10/17 13:43:55;;;;;;;0.00;0.00;;;;;;;;;;5081751;28;20020;-75
2022/10/17 13:46:32;;;;;;;0.47;0.47;;;;;;;;;;5111931;27;20020;-74
2022/10/17 13:49:00;;;;;;;0.32;0.32;;;;;;;;;;5103100;27;20028;-74
2022/10/17 13:51:27;;;;;;;0.10;0.10;;;;;;;;;;5105725;27;20052;-73
2022/10/17 13:53:53;;;;;;;1.98;1.77;;;;;;;;;;5092904;28;20339;-73
2022/10/17 13:56:19;;;;;;;4.97;1.02;;;;;;;;;;5086646;28;20386;-74
2022/10/17 13:58:48;;;;;;;0.22;0.22;;;;;;;;;;5097049;28;20105;-73
2022/10/17 14:01:14;;;;;;;0.00;0.00;;;;;;;;;;5113499;28;20058;-73
2022/10/17 14:03:41;;;;;;;2.53;0.90;;;;;;;;;;5097856;28;20031;-73
2022/10/17 14:06:11;;;;;;;1.92;1.80;;;;;;;;;;5129171;28;20157;-74
2022/10/17 14:08:38;;;;;;;13.38;3.67;;;;;;;;;;5113901;28;20035;-73
2022/10/17 14:11:13;;;;;;;10.85;3.53;;;;;;;;;;5125590;28;20104;-73
2022/10/17 14:13:40;;;;;;;0.00;0.00;;;;;;;;;;5093009;28;20027;-73
2022/10/17 14:16:09;;;;;;;1.25;1.25;;;;;;;;;;5111806;27;20047;-74
2022/10/17 14:18:36;;;;;;;0.00;0.00;;;;;;;;;;5093503;28;20054;-73
2022/10/17 14:21:02;;;;;;;0.00;0.00;;;;;;;;;;5102739;28;20024;-74
2022/10/17 14:23:37;;;;;;;0.22;0.22;;;;;;;;;;5093193;28;20019;-73
2022/10/17 14:26:05;;;;;;;0.00;0.00;;;;;;;;;;5133605;28;20115;-73
2022/10/17 14:28:31;;;;;;;0.20;0.20;;;;;;;;;;5107206;28;20049;-73
2022/10/17 14:31:10;;;;;;;0.10;0.10;;;;;;;;;;5102693;28;20028;-74
2022/10/17 14:33:36;;;;;;;0.00;0.00;;;;;;;;;;5084274;28;20521;-76
2022/10/17 14:36:04;;;;;;;0.47;0.47;;;;;;;;;;5090132;28;20076;-74
2022/10/17 14:38:30;;;;;;;0.00;0.00;;;;;;;;;;5090886;28;20481;-74
2022/10/17 14:41:05;;;;;;;0.20;0.20;;;;;;;;;;5113517;28;20027;-73
2022/10/17 14:43:32;;;;;;;0.00;0.00;;;;;;;;;;5107189;27;20039;-72
2022/10/17 14:45:59;;;;;;;0.00;0.00;;;;;;;;;;5083642;28;20054;-73
2022/10/17 14:48:27;;;;;;;0.00;0.00;;;;;;;;;;5106701;28;20383;-73
2022/10/17 14:51:10;;;;;;;2.47;2.40;;;;;;;;;;5110627;28;20031;-73
2022/10/17 14:53:38;;;;;;;0.22;0.22;;;;;;;;;;5117734;27;20030;-74
2022/10/17 14:56:19;;;;;;;0.00;0.00;;;;;;;;;;5090871;27;20035;-74
2022/10/17 14:58:45;;;;;;;1.35;1.35;;;;;;;;;;5094805;28;20023;-74
2022/10/17 15:01:12;;;;;;;0.00;0.00;;;;;;;;;;5098639;28;20148;-74